createdAt,value
2017-12-30T12:20:26.179Z,79.10
2017-12-30T12:23:03.779Z,78.10
2017-12-30T12:25:31.316Z,79.10
2017-12-30T12:27:59.587Z,79.60
2017-12-30T12:30:27.890Z,78.70
2017-12-30T12:32:55.409Z,78.20
2017-12-30T12:35:22.935Z,77.90
2017-12-30T12:37:50.444Z,78.70
2017-12-30T12:40:18.736Z,78.50
2017-12-30T12:42:46.244Z,78.00
2017-12-30T12:45:13.781Z,78.30
2017-12-30T12:47:41.303Z,78.50
2017-12-30T12:50:08.846Z,78.30
2017-12-30T12:52:37.113Z,78.60
2017-12-30T12:55:04.644Z,77.40
2017-12-30T12:57:32.144Z,78.40
2017-12-30T13:00:00.570Z,79.30
2017-12-30T13:02:28.095Z,77.70
2017-12-30T13:04:55.599Z,78.60
2017-12-30T13:07:23.127Z,78.40
2017-12-30T13:09:50.636Z,79.00
2017-12-30T13:12:18.163Z,79.10
2017-12-30T13:14:45.667Z,79.10
2017-12-30T13:17:14.097Z,79.60
2017-12-30T13:19:41.613Z,78.50
2017-12-30T13:22:09.144Z,78.40
2017-12-30T13:24:36.654Z,78.90
2017-12-30T13:27:04.183Z,78.50
2017-12-30T13:29:31.708Z,78.70
2017-12-30T13:31:59.259Z,79.60
2017-12-30T13:34:26.801Z,79.20
2017-12-30T13:36:54.328Z,79.60
2017-12-30T13:39:21.840Z,79.60
2017-12-30T13:41:49.377Z,79.90
2017-12-30T13:44:16.938Z,80.60
2017-12-30T13:46:44.463Z,80.70
2017-12-30T13:49:11.988Z,80.90
2017-12-30T13:51:40.339Z,81.40
2017-12-30T13:54:07.983Z,80.70
2017-12-30T13:56:35.496Z,81.40
2017-12-30T13:59:03.845Z,81.50
2017-12-30T14:01:31.405Z,80.60
2017-12-30T14:03:58.904Z,80.90
2017-12-30T14:06:39.916Z,81.20
2017-12-30T14:09:07.453Z,81.40
2017-12-30T14:11:35.011Z,80.60
2017-12-30T14:14:02.539Z,80.70
2017-12-30T14:16:35.818Z,81.10
2017-12-30T14:19:04.118Z,88.80
2017-12-30T14:21:31.624Z,80.60
2017-12-30T14:23:59.152Z,81.10
2017-12-30T14:26:26.656Z,81.00
2017-12-30T14:28:54.176Z,81.60
2017-12-30T14:31:21.730Z,82.20
2017-12-30T14:33:49.253Z,82.20
2017-12-30T14:36:17.565Z,82.90
2017-12-30T14:38:45.103Z,82.70
2017-12-30T14:41:12.617Z,82.90
2017-12-30T14:43:40.186Z,82.40
2017-12-30T14:46:07.695Z,82.60
2017-12-30T14:48:35.272Z,83.00
2017-12-30T14:51:02.776Z,82.90
2017-12-30T14:53:31.059Z,84.70
2017-12-30T14:55:59.345Z,83.90
2017-12-30T14:58:26.868Z,83.40
2017-12-30T15:00:54.412Z,83.40
2017-12-30T15:03:21.923Z,80.40
2017-12-30T15:05:49.502Z,83.80
2017-12-30T15:08:17.003Z,83.90
2017-12-30T15:10:44.538Z,84.00
2017-12-30T15:13:12.044Z,94.00
2017-12-30T15:15:40.342Z,84.90
2017-12-30T15:18:07.850Z,84.80
2017-12-30T15:20:35.417Z,85.30
2017-12-30T15:23:03.711Z,86.40
2017-12-30T15:25:31.290Z,86.00
2017-12-30T15:27:58.804Z,85.90
2017-12-30T15:30:26.335Z,86.50
2017-12-30T15:32:53.839Z,86.20
2017-12-30T15:35:22.186Z,87.20
2017-12-30T15:37:49.696Z,86.40
2017-12-30T15:40:17.280Z,87.40
2017-12-30T15:42:44.796Z,88.00
2017-12-30T15:45:12.330Z,87.90
2017-12-30T15:47:39.856Z,88.20
2017-12-30T15:50:07.429Z,99.30
2017-12-30T15:52:34.952Z,88.00
2017-12-30T15:55:02.473Z,88.50
2017-12-30T15:57:30.807Z,90.00
2017-12-30T15:59:58.353Z,89.20
2017-12-30T16:02:25.935Z,89.30
2017-12-30T16:04:53.442Z,89.50
2017-12-30T16:07:21.032Z,89.60
2017-12-30T16:09:48.543Z,90.00
2017-12-30T16:12:16.853Z,90.10
2017-12-30T16:14:44.372Z,88.80
2017-12-30T16:17:12.676Z,89.50
2017-12-30T16:19:40.195Z,88.60
2017-12-30T16:22:07.720Z,89.00
2017-12-30T16:24:35.289Z,89.10
2017-12-30T16:27:02.828Z,89.90
2017-12-30T16:29:30.359Z,90.00
2017-12-30T16:31:57.938Z,89.50
2017-12-30T16:34:25.456Z,89.00
2017-12-30T16:36:53.951Z,89.70
2017-12-30T16:39:22.227Z,89.50
2017-12-30T16:41:50.540Z,89.70
2017-12-30T16:44:18.061Z,89.70
2017-12-30T16:46:46.349Z,90.10
2017-12-30T16:49:13.938Z,89.60
2017-12-30T16:51:41.457Z,90.00
2017-12-30T16:54:09.033Z,90.10
2017-12-30T16:56:36.594Z,90.40
2017-12-30T16:59:04.148Z,90.50
2017-12-30T17:01:31.756Z,90.70
2017-12-30T17:03:59.973Z,90.70
2017-12-30T17:06:32.348Z,91.00
2017-12-30T17:08:59.907Z,90.90
2017-12-30T17:11:27.427Z,90.90
2017-12-30T17:13:55.189Z,91.10
2017-12-30T17:16:22.744Z,91.20
2017-12-30T17:18:50.331Z,91.50
2017-12-30T17:21:18.655Z,91.20
2017-12-30T17:23:46.473Z,90.80
2017-12-30T17:26:14.009Z,91.40
2017-12-30T17:28:41.610Z,91.20
2017-12-30T17:31:09.133Z,91.30
2017-12-30T17:33:36.817Z,91.20
2017-12-30T17:36:04.434Z,92.40
2017-12-30T17:38:31.968Z,91.40
2017-12-30T17:40:59.527Z,91.10
2017-12-30T17:43:27.204Z,91.00
2017-12-30T17:45:54.833Z,91.00
2017-12-30T17:48:22.408Z,90.70
2017-12-30T17:50:49.998Z,90.70
2017-12-30T17:53:17.588Z,90.70
2017-12-30T17:55:45.201Z,91.00
2017-12-30T17:58:12.781Z,91.20
2017-12-30T18:00:40.363Z,91.00
2017-12-30T18:03:08.678Z,91.50
2017-12-30T18:05:36.284Z,91.60
2017-12-30T18:08:03.983Z,91.40
2017-12-30T18:10:32.325Z,98.20
2017-12-30T18:12:59.889Z,91.50
2017-12-30T18:15:28.239Z,92.50
2017-12-30T18:17:55.811Z,92.20
2017-12-30T18:20:23.528Z,92.20
2017-12-30T18:22:51.181Z,92.50
2017-12-30T18:25:18.758Z,93.00
2017-12-30T18:27:46.317Z,93.30
2017-12-30T18:30:13.964Z,93.30
2017-12-30T18:32:41.499Z,93.50
2017-12-30T18:35:09.078Z,93.70
2017-12-30T18:37:36.667Z,93.80
2017-12-30T18:40:04.287Z,94.50
2017-12-30T18:42:31.871Z,94.50
2017-12-30T18:44:59.436Z,94.70
2017-12-30T18:47:27.151Z,94.70
2017-12-30T18:49:55.479Z,95.70
2017-12-30T18:52:23.062Z,95.10
2017-12-30T18:54:50.632Z,95.10
2017-12-30T18:57:18.255Z,95.20
2017-12-30T18:59:45.815Z,96.00
2017-12-30T19:02:13.401Z,95.60
2017-12-30T19:04:40.964Z,95.70
2017-12-30T19:07:09.310Z,95.50
2017-12-30T19:09:36.935Z,95.50
2017-12-30T19:12:04.520Z,99.90
2017-12-30T19:14:32.025Z,95.40
2017-12-30T19:17:00.379Z,96.60
2017-12-30T19:19:27.887Z,96.10
2017-12-30T19:21:55.475Z,96.30
2017-12-30T19:24:23.033Z,96.40
2017-12-30T19:26:50.564Z,96.30
2017-12-30T19:29:18.135Z,96.10
2017-12-30T19:31:45.751Z,96.30
2017-12-30T19:34:13.311Z,96.30
2017-12-30T19:36:40.887Z,96.30
2017-12-30T19:39:09.212Z,96.10
2017-12-30T19:41:36.786Z,96.20
2017-12-30T19:44:04.388Z,96.10
2017-12-30T19:46:31.958Z,96.40
2017-12-30T19:48:59.644Z,96.60
2017-12-30T19:51:27.223Z,96.80
2017-12-30T19:53:54.816Z,97.00
2017-12-30T19:56:23.207Z,96.70
2017-12-30T19:58:51.579Z,97.30
2017-12-30T20:01:19.153Z,96.80
2017-12-30T20:03:46.744Z,96.80
2017-12-30T20:06:14.305Z,97.20
2017-12-30T20:08:41.893Z,97.30
2017-12-30T20:11:09.471Z,97.10
2017-12-30T20:13:37.824Z,96.90
2017-12-30T20:16:05.379Z,97.10
2017-12-30T20:18:33.016Z,98.00
2017-12-30T20:21:00.615Z,98.20
2017-12-30T20:23:28.207Z,98.00
2017-12-30T20:25:55.766Z,98.00
2017-12-30T20:28:23.349Z,98.00
2017-12-30T20:30:50.920Z,97.80
2017-12-30T20:33:18.522Z,98.30
2017-12-30T20:35:46.894Z,98.20
2017-12-30T20:38:15.239Z,98.60
2017-12-30T20:40:42.834Z,98.40
2017-12-30T20:43:10.408Z,98.70
2017-12-30T20:45:38.021Z,99.20
2017-12-30T20:48:05.604Z,99.30
2017-12-30T20:50:33.969Z,99.20
2017-12-30T20:53:01.797Z,98.90
2017-12-30T20:55:29.548Z,99.20
2017-12-30T20:57:57.158Z,99.10
2017-12-30T21:00:24.760Z,99.10
2017-12-30T21:02:52.336Z,99.10
2017-12-30T21:05:20.701Z,99.60
2017-12-30T21:07:48.279Z,99.70
2017-12-30T21:10:15.879Z,99.90
2017-12-30T21:12:43.527Z,99.90
2017-12-30T21:15:11.124Z,99.90
2017-12-30T21:17:39.491Z,99.70
2017-12-30T21:20:07.842Z,99.70
2017-12-30T21:22:35.408Z,99.50
2017-12-30T21:25:03.008Z,99.70
2017-12-30T21:27:31.034Z,99.90
2017-12-30T21:29:58.641Z,99.90
2017-12-30T21:32:26.212Z,99.90
2017-12-30T21:34:53.787Z,99.90
2017-12-30T21:37:21.388Z,99.90
2017-12-30T21:39:49.734Z,99.90
2017-12-30T21:42:17.331Z,99.90
2017-12-30T21:44:45.675Z,99.90
2017-12-30T21:47:13.267Z,99.90
2017-12-30T21:49:41.602Z,99.90
2017-12-30T21:52:09.188Z,99.90
2017-12-30T21:54:36.805Z,99.90
2017-12-30T21:57:04.401Z,99.90
2017-12-30T21:59:31.976Z,99.90
2017-12-30T22:02:00.336Z,99.90
2017-12-30T22:04:27.910Z,99.90
2017-12-30T22:06:55.524Z,99.90
2017-12-30T22:09:23.236Z,99.90
2017-12-30T22:11:50.946Z,99.90
2017-12-30T22:14:18.574Z,99.90
2017-12-30T22:16:46.278Z,99.90
2017-12-30T22:19:13.903Z,99.60
2017-12-30T22:21:41.719Z,99.90
2017-12-30T22:24:09.367Z,99.90
2017-12-30T22:26:37.036Z,99.90
2017-12-30T22:29:04.724Z,99.90
2017-12-30T22:31:33.098Z,99.90
2017-12-30T22:34:00.740Z,99.90
2017-12-30T22:36:28.307Z,99.90
2017-12-30T22:38:55.916Z,99.90
2017-12-30T22:41:23.522Z,99.90
2017-12-30T22:43:51.186Z,99.90
2017-12-30T22:46:18.763Z,99.90
2017-12-30T22:48:47.127Z,99.90
2017-12-30T22:51:14.704Z,99.90
2017-12-30T22:53:43.200Z,99.90
2017-12-30T22:56:10.776Z,99.90
2017-12-30T22:58:38.372Z,99.90
2017-12-30T23:01:08.814Z,99.90
2017-12-30T23:03:36.417Z,99.90
2017-12-30T23:06:04.085Z,99.90
2017-12-30T23:08:31.736Z,99.90
2017-12-30T23:10:59.321Z,99.90
2017-12-30T23:13:26.986Z,99.90
2017-12-30T23:15:54.654Z,99.90
2017-12-30T23:18:22.255Z,99.90
2017-12-30T23:20:50.604Z,99.90
2017-12-30T23:23:18.245Z,99.90
2017-12-30T23:25:45.821Z,99.90
2017-12-30T23:28:13.424Z,99.90
2017-12-30T23:30:40.985Z,99.90
2017-12-30T23:33:09.407Z,99.90
2017-12-30T23:35:37.016Z,99.90
2017-12-30T23:38:05.363Z,99.90
2017-12-30T23:40:33.740Z,99.90
2017-12-30T23:43:01.320Z,99.90
2017-12-30T23:45:29.666Z,99.90
2017-12-30T23:47:57.450Z,99.90
2017-12-30T23:50:25.119Z,99.90
2017-12-30T23:52:52.682Z,99.90
2017-12-30T23:55:21.042Z,99.90
2017-12-30T23:57:48.611Z,99.90
